createdAt,value
2023-05-23T00:00:24.015Z,0.00
2023-05-23T00:02:24.437Z,0.00
2023-05-23T00:04:24.852Z,0.00
2023-05-23T00:07:06.848Z,0.00
2023-05-23T00:09:07.187Z,0.00
2023-05-23T00:11:07.469Z,0.00
2023-05-23T00:13:07.795Z,0.00
2023-05-23T00:15:08.116Z,0.00
2023-05-23T00:17:08.620Z,0.00
2023-05-23T00:19:09.128Z,0.00
2023-05-23T00:21:09.580Z,0.00
2023-05-23T00:23:09.852Z,0.00
2023-05-23T00:25:10.127Z,0.00
2023-05-23T00:27:10.440Z,0.00
2023-05-23T00:29:10.787Z,0.00
2023-05-23T00:31:11.228Z,0.00
2023-05-23T00:33:11.559Z,0.00
2023-05-23T00:35:11.920Z,0.00
2023-05-23T00:37:12.201Z,0.00
2023-05-23T00:39:12.472Z,0.00
2023-05-23T00:41:12.798Z,0.00
2023-05-23T00:43:13.073Z,0.00
2023-05-23T00:45:13.351Z,0.00
2023-05-23T00:47:13.660Z,0.00
2023-05-23T00:49:13.981Z,0.00
2023-05-23T00:51:14.392Z,0.00
2023-05-23T00:53:14.670Z,0.00
2023-05-23T00:55:14.938Z,0.00
2023-05-23T00:57:15.237Z,0.00
2023-05-23T00:59:15.546Z,0.00
2023-05-23T01:01:15.894Z,0.00
2023-05-23T01:03:16.309Z,0.00
2023-05-23T01:05:16.625Z,0.00
2023-05-23T01:07:17.037Z,0.00
2023-05-23T01:09:17.278Z,0.00
2023-05-23T01:11:17.608Z,0.00
2023-05-23T01:13:17.943Z,0.00
2023-05-23T01:15:18.221Z,0.00
2023-05-23T01:17:18.532Z,0.00
2023-05-23T01:19:18.925Z,0.00
2023-05-23T01:21:19.215Z,0.00
2023-05-23T01:23:19.637Z,0.00
2023-05-23T01:25:19.993Z,0.00
2023-05-23T01:27:20.281Z,0.00
2023-05-23T01:29:20.613Z,0.00
2023-05-23T01:31:25.810Z,0.00
2023-05-23T01:33:26.130Z,0.00
2023-05-23T01:35:26.518Z,0.00
2023-05-23T01:37:26.761Z,0.00
2023-05-23T01:39:27.223Z,0.00
2023-05-23T01:41:27.523Z,0.00
2023-05-23T01:43:27.920Z,0.00
2023-05-23T01:45:28.241Z,0.00
2023-05-23T01:47:28.594Z,0.00
2023-05-23T01:49:28.902Z,0.00
2023-05-23T01:51:29.228Z,0.00
2023-05-23T01:53:29.557Z,0.00
2023-05-23T01:55:29.969Z,0.00
2023-05-23T01:57:30.209Z,0.00
2023-05-23T01:59:30.526Z,0.00
2023-05-23T02:01:30.852Z,0.00
2023-05-23T02:03:31.204Z,0.00
2023-05-23T02:05:31.544Z,0.00
2023-05-23T02:07:31.786Z,0.00
2023-05-23T02:09:32.228Z,0.00
2023-05-23T02:11:32.610Z,0.00
2023-05-23T02:13:32.913Z,0.00
2023-05-23T02:15:33.319Z,0.00
2023-05-23T02:17:33.653Z,0.00
2023-05-23T02:19:34.007Z,0.00
2023-05-23T02:21:35.541Z,0.00
2023-05-23T02:23:36.063Z,0.00
2023-05-23T02:25:36.441Z,0.00
2023-05-23T02:27:36.836Z,0.00
2023-05-23T02:29:37.157Z,0.00
2023-05-23T02:31:37.487Z,0.00
2023-05-23T02:33:37.905Z,0.00
2023-05-23T02:35:38.441Z,0.00
2023-05-23T02:37:38.917Z,0.00
2023-05-23T02:39:39.420Z,0.00
2023-05-23T02:41:39.691Z,0.00
2023-05-23T02:43:40.102Z,0.00
2023-05-23T02:45:40.552Z,0.00
2023-05-23T02:47:40.982Z,0.00
2023-05-23T02:49:41.297Z,0.00
2023-05-23T02:51:41.548Z,0.00
2023-05-23T02:53:46.950Z,0.00
2023-05-23T02:55:47.221Z,0.00
2023-05-23T02:57:52.412Z,0.00
2023-05-23T02:59:52.811Z,0.00
2023-05-23T03:01:53.154Z,0.00
2023-05-23T03:03:54.438Z,0.00
2023-05-23T03:05:54.747Z,0.00
2023-05-23T03:07:55.038Z,4.00
2023-05-23T03:09:55.353Z,0.00
2023-05-23T03:11:55.635Z,4.00
2023-05-23T03:13:56.049Z,4.00
2023-05-23T03:15:56.451Z,4.00
2023-05-23T03:17:56.796Z,12.00
2023-05-23T03:19:57.098Z,12.00
2023-05-23T03:21:57.448Z,16.00
2023-05-23T03:23:57.678Z,20.00
2023-05-23T03:25:58.022Z,28.00
2023-05-23T03:27:58.383Z,32.00
2023-05-23T03:29:58.655Z,44.00
2023-05-23T03:31:59.064Z,52.00
2023-05-23T03:33:59.365Z,72.00
2023-05-23T03:35:59.677Z,96.00
2023-05-23T03:37:59.998Z,104.00
2023-05-23T03:40:00.277Z,136.00
2023-05-23T03:42:00.554Z,156.00
2023-05-23T03:44:01.078Z,188.00
2023-05-23T03:46:01.417Z,196.00
2023-05-23T03:48:01.913Z,232.00
2023-05-23T03:50:02.189Z,264.00
2023-05-23T03:52:02.595Z,276.00
2023-05-23T03:54:02.891Z,292.00
2023-05-23T03:56:03.130Z,328.00
2023-05-23T03:58:03.534Z,368.00
2023-05-23T04:00:03.818Z,396.00
2023-05-23T04:02:04.118Z,436.00
2023-05-23T04:04:04.623Z,464.00
2023-05-23T04:06:05.849Z,552.00
2023-05-23T04:08:06.189Z,596.00
2023-05-23T04:10:06.510Z,604.00
2023-05-23T04:12:06.862Z,640.00
2023-05-23T04:14:07.131Z,712.00
2023-05-23T04:16:07.484Z,696.00
2023-05-23T04:18:07.957Z,784.00
2023-05-23T04:20:08.384Z,784.00
2023-05-23T04:22:08.654Z,836.00
2023-05-23T04:24:08.933Z,848.00
2023-05-23T04:26:09.445Z,876.00
2023-05-23T04:28:09.759Z,988.00
2023-05-23T04:30:10.347Z,956.00
2023-05-23T04:32:10.669Z,976.00
2023-05-23T04:34:11.019Z,1056.00
2023-05-23T04:36:11.477Z,1152.00
2023-05-23T04:38:11.773Z,1200.00
2023-05-23T04:40:12.131Z,1140.00
2023-05-23T04:42:15.023Z,1308.00
2023-05-23T04:44:15.407Z,1260.00
2023-05-23T04:46:15.768Z,1408.00
2023-05-23T04:48:16.092Z,1324.00
2023-05-23T04:50:16.386Z,1388.00
2023-05-23T04:52:16.719Z,1348.00
2023-05-23T04:54:17.014Z,1484.00
2023-05-23T04:56:18.588Z,1536.00
2023-05-23T04:58:22.970Z,1576.00
2023-05-23T05:00:23.705Z,1464.00
2023-05-23T05:02:24.245Z,1616.00
2023-05-23T05:04:24.911Z,1648.00
2023-05-23T05:06:25.577Z,1664.00
2023-05-23T05:08:26.138Z,1604.00
2023-05-23T05:10:26.583Z,1640.00
2023-05-23T05:12:27.044Z,1620.00
2023-05-23T05:14:27.682Z,1660.00
2023-05-23T05:16:28.250Z,1908.00
2023-05-23T05:18:28.751Z,2000.00
2023-05-23T05:20:29.218Z,1908.00
2023-05-23T05:22:29.669Z,1916.00
2023-05-23T05:24:30.040Z,2112.00
2023-05-23T05:26:30.303Z,2188.00
2023-05-23T05:28:30.598Z,2192.00
2023-05-23T05:30:30.957Z,2200.00
2023-05-23T05:32:31.436Z,2196.00
2023-05-23T05:34:31.680Z,2092.00
2023-05-23T05:36:32.179Z,1876.00
2023-05-23T05:38:32.466Z,2124.00
2023-05-23T05:40:32.901Z,2116.00
2023-05-23T05:42:33.215Z,2540.00
2023-05-23T05:44:33.651Z,2752.00
2023-05-23T05:46:33.939Z,2864.00
2023-05-23T05:48:34.248Z,2996.00
2023-05-23T05:50:39.900Z,2824.00
2023-05-23T05:52:40.351Z,2396.00
2023-05-23T05:54:40.700Z,2352.00
2023-05-23T05:56:41.091Z,2848.00
2023-05-23T05:58:41.501Z,2736.00
2023-05-23T06:00:42.071Z,2592.00
2023-05-23T06:02:42.770Z,2528.00
2023-05-23T06:04:43.125Z,2084.00
2023-05-23T06:06:43.407Z,1784.00
2023-05-23T06:08:43.769Z,1652.00
2023-05-23T06:10:44.275Z,1580.00
2023-05-23T06:12:44.686Z,1304.00
2023-05-23T06:14:44.957Z,1404.00
2023-05-23T06:16:45.630Z,1712.00
2023-05-23T06:18:45.928Z,2132.00
2023-05-23T06:20:46.344Z,2628.00
2023-05-23T06:22:46.809Z,3024.00
2023-05-23T06:24:47.073Z,3040.00
2023-05-23T06:26:47.387Z,3440.00
2023-05-23T06:28:47.816Z,2884.00
2023-05-23T06:30:48.287Z,2860.00
2023-05-23T06:32:48.637Z,3088.00
2023-05-23T06:34:49.022Z,2688.00
2023-05-23T06:36:49.267Z,2184.00
2023-05-23T06:38:49.787Z,2132.00
2023-05-23T06:40:50.102Z,2580.00
2023-05-23T06:42:50.408Z,3032.00
2023-05-23T06:44:50.865Z,2980.00
2023-05-23T06:46:51.168Z,3172.00
2023-05-23T06:49:02.558Z,3516.00
2023-05-23T06:50:56.810Z,3632.00
2023-05-23T06:52:57.062Z,3880.00
2023-05-23T06:54:57.343Z,3792.00
2023-05-23T06:56:57.692Z,4488.00
2023-05-23T06:58:57.986Z,4244.00
2023-05-23T07:00:58.438Z,3560.00
2023-05-23T07:02:58.811Z,3044.00
2023-05-23T07:04:59.093Z,3120.00
2023-05-23T07:06:59.362Z,2972.00
2023-05-23T07:09:02.419Z,2816.00
2023-05-23T07:11:02.923Z,2876.00
2023-05-23T07:13:03.689Z,2872.00
2023-05-23T07:15:04.601Z,2972.00
2023-05-23T07:17:05.114Z,3488.00
2023-05-23T07:19:09.047Z,3844.00
2023-05-23T07:21:09.806Z,4220.00
2023-05-23T07:23:56.439Z,4364.00
2023-05-23T07:26:02.631Z,4288.00
2023-05-23T07:28:02.091Z,3744.00
2023-05-23T07:30:02.526Z,3716.00
2023-05-23T07:32:02.905Z,3956.00
2023-05-23T07:34:03.241Z,4364.00
2023-05-23T07:36:03.633Z,4748.00
2023-05-23T07:38:03.921Z,4788.00
2023-05-23T07:40:04.525Z,5500.00
2023-05-23T07:42:04.799Z,5468.00
2023-05-23T07:44:05.110Z,5680.00
2023-05-23T07:46:05.436Z,5920.00
2023-05-23T07:48:05.750Z,5756.00
2023-05-23T07:50:06.037Z,5712.00
2023-05-23T07:52:06.362Z,5376.00
2023-05-23T07:54:06.655Z,5432.00
2023-05-23T07:56:07.055Z,5712.00
2023-05-23T07:58:07.300Z,5724.00
2023-05-23T08:00:07.723Z,5932.00
2023-05-23T08:02:08.164Z,5944.00
2023-05-23T08:04:08.519Z,5920.00
2023-05-23T08:06:08.872Z,5460.00
2023-05-23T08:08:09.148Z,5040.00
2023-05-23T08:10:09.436Z,4496.00
2023-05-23T08:12:09.799Z,4760.00
2023-05-23T08:14:10.085Z,5156.00
2023-05-23T08:16:10.454Z,5224.00
2023-05-23T08:18:11.069Z,5364.00
2023-05-23T08:20:11.351Z,5508.00
2023-05-23T08:22:11.706Z,5384.00
2023-05-23T08:24:14.124Z,5604.00
2023-05-23T08:26:15.454Z,6492.00
2023-05-23T08:28:15.715Z,7000.00
2023-05-23T08:30:16.033Z,7040.00
2023-05-23T08:32:16.378Z,7056.00
2023-05-23T08:34:16.724Z,6960.00
2023-05-23T08:36:17.013Z,6468.00
2023-05-23T08:38:17.322Z,6428.00
2023-05-23T08:40:17.760Z,5596.00
2023-05-23T08:42:18.079Z,5912.00
2023-05-23T08:44:18.383Z,5912.00
2023-05-23T08:46:18.740Z,4728.00
2023-05-23T08:48:19.146Z,3808.00
2023-05-23T08:50:22.521Z,3468.00
2023-05-23T08:52:23.314Z,4904.00
2023-05-23T08:54:23.629Z,5404.00
2023-05-23T08:56:23.910Z,4004.00
2023-05-23T08:58:24.189Z,3460.00
2023-05-23T09:00:24.526Z,3924.00
2023-05-23T09:02:24.895Z,3440.00
2023-05-23T09:04:25.173Z,3436.00
2023-05-23T09:06:25.589Z,3396.00
2023-05-23T09:08:25.921Z,4648.00
2023-05-23T09:10:26.184Z,5580.00
2023-05-23T09:12:26.498Z,5844.00
2023-05-23T09:14:26.975Z,7016.00
2023-05-23T09:16:27.270Z,5648.00
2023-05-23T09:18:27.716Z,5560.00
2023-05-23T09:20:28.032Z,6320.00
2023-05-23T09:22:28.293Z,6056.00
2023-05-23T09:24:28.593Z,4976.00
2023-05-23T09:26:28.967Z,5096.00
2023-05-23T09:28:29.206Z,5520.00
2023-05-23T09:30:29.520Z,5104.00
2023-05-23T09:32:29.833Z,4752.00
2023-05-23T09:34:30.100Z,5840.00
2023-05-23T09:36:30.430Z,6060.00
2023-05-23T09:38:30.730Z,5356.00
2023-05-23T09:40:31.120Z,4968.00
2023-05-23T09:42:31.531Z,4672.00
2023-05-23T09:44:31.804Z,4820.00
2023-05-23T09:46:32.212Z,4520.00
2023-05-23T09:48:32.474Z,4396.00
2023-05-23T09:50:32.820Z,4440.00
2023-05-23T09:52:33.086Z,4596.00
2023-05-23T09:55:15.062Z,6584.00
2023-05-23T09:57:15.339Z,5768.00
2023-05-23T09:59:15.668Z,4680.00
2023-05-23T10:01:16.008Z,5688.00
2023-05-23T10:03:16.444Z,6508.00
2023-05-23T10:05:16.776Z,7440.00
2023-05-23T10:07:17.079Z,7112.00
2023-05-23T10:09:17.364Z,5820.00
2023-05-23T10:11:17.667Z,4896.00
2023-05-23T10:13:18.067Z,4320.00
2023-05-23T10:15:18.574Z,4496.00
2023-05-23T10:17:19.286Z,4312.00
2023-05-23T10:19:20.091Z,4440.00
2023-05-23T10:21:20.528Z,5020.00
2023-05-23T10:23:20.904Z,4836.00
2023-05-23T10:25:21.267Z,4744.00
2023-05-23T10:27:21.678Z,5096.00
2023-05-23T10:29:21.995Z,4716.00
2023-05-23T10:31:22.506Z,4560.00
2023-05-23T10:33:22.837Z,4720.00
2023-05-23T10:35:23.128Z,4592.00
2023-05-23T10:37:23.459Z,5476.00
2023-05-23T10:39:23.762Z,6808.00
2023-05-23T10:41:24.122Z,7452.00
2023-05-23T10:43:29.327Z,8368.00
2023-05-23T10:45:29.647Z,8396.00
2023-05-23T10:47:30.061Z,8680.00
2023-05-23T10:49:30.355Z,8884.00
2023-05-23T10:51:30.730Z,8448.00
2023-05-23T10:53:31.034Z,7556.00
2023-05-23T10:55:31.305Z,6780.00
2023-05-23T10:57:31.592Z,5100.00
2023-05-23T10:59:31.925Z,3476.00
2023-05-23T11:01:33.171Z,2424.00
2023-05-23T11:03:33.607Z,1600.00
2023-05-23T11:05:34.008Z,1544.00
2023-05-23T11:07:34.371Z,2032.00
2023-05-23T11:09:34.971Z,2956.00
2023-05-23T11:11:40.595Z,3424.00
2023-05-23T11:13:41.190Z,3476.00
2023-05-23T11:15:41.652Z,3724.00
2023-05-23T11:17:42.050Z,4108.00
2023-05-23T11:19:42.679Z,4404.00
2023-05-23T11:21:47.591Z,5340.00
2023-05-23T11:23:48.055Z,5784.00
2023-05-23T11:25:49.297Z,6756.00
2023-05-23T11:27:50.120Z,7232.00
2023-05-23T11:29:50.664Z,7576.00
2023-05-23T11:31:50.976Z,8100.00
2023-05-23T11:33:52.969Z,8516.00
2023-05-23T11:35:53.426Z,8852.00
2023-05-23T11:37:53.895Z,8928.00
2023-05-23T11:39:54.144Z,8724.00
2023-05-23T11:41:54.465Z,8416.00
2023-05-23T11:43:54.990Z,7412.00
2023-05-23T11:45:55.572Z,5920.00
2023-05-23T11:47:55.940Z,5888.00
2023-05-23T11:49:56.201Z,7136.00
2023-05-23T11:51:56.575Z,8448.00
2023-05-23T11:53:56.920Z,6964.00
2023-05-23T11:55:57.204Z,4512.00
2023-05-23T11:57:57.656Z,3616.00
2023-05-23T11:59:57.975Z,2348.00
2023-05-23T12:01:58.228Z,2636.00
2023-05-23T12:03:58.610Z,2984.00
2023-05-23T12:05:59.113Z,3640.00
2023-05-23T12:08:00.936Z,4580.00
2023-05-23T12:10:01.598Z,5068.00
2023-05-23T12:12:01.941Z,5504.00
2023-05-23T12:14:02.177Z,5404.00
2023-05-23T12:16:02.539Z,5696.00
2023-05-23T12:18:03.366Z,5744.00
2023-05-23T12:20:03.740Z,5888.00
2023-05-23T12:22:04.416Z,6592.00
2023-05-23T12:24:04.775Z,7412.00
2023-05-23T12:26:05.083Z,7588.00
2023-05-23T12:28:05.462Z,7928.00
2023-05-23T12:30:05.837Z,7212.00
2023-05-23T12:32:06.135Z,7828.00
2023-05-23T12:34:06.469Z,7752.00
2023-05-23T12:36:06.777Z,7368.00
2023-05-23T12:38:07.034Z,7264.00
2023-05-23T12:40:07.388Z,6536.00
2023-05-23T12:42:07.686Z,6932.00
2023-05-23T12:44:08.370Z,7080.00
2023-05-23T12:46:08.706Z,7792.00
2023-05-23T12:48:09.043Z,8548.00
2023-05-23T12:50:10.080Z,11428.00
2023-05-23T12:52:10.355Z,8880.00
2023-05-23T12:54:10.737Z,8364.00
2023-05-23T12:56:11.025Z,8972.00
2023-05-23T12:58:11.457Z,6140.00
2023-05-23T13:00:11.878Z,6648.00
2023-05-23T13:02:12.452Z,6856.00
2023-05-23T13:04:12.728Z,7616.00
2023-05-23T13:06:13.352Z,7332.00
2023-05-23T13:08:13.674Z,7820.00
2023-05-23T13:10:13.961Z,8380.00
2023-05-23T13:12:14.512Z,7312.00
2023-05-23T13:14:14.801Z,7884.00
2023-05-23T13:16:15.185Z,8396.00
2023-05-23T13:18:15.549Z,5004.00
2023-05-23T13:20:15.800Z,7160.00
2023-05-23T13:22:16.139Z,1796.00
2023-05-23T13:24:16.541Z,2860.00
2023-05-23T13:26:16.805Z,3192.00
2023-05-23T13:28:17.188Z,3292.00
2023-05-23T13:30:17.528Z,2740.00
2023-05-23T13:32:17.878Z,1408.00
2023-05-23T13:34:18.467Z,2172.00
2023-05-23T13:36:18.766Z,1072.00
2023-05-23T13:38:19.155Z,1032.00
2023-05-23T13:40:19.505Z,820.00
2023-05-23T13:42:19.780Z,700.00
2023-05-23T13:44:20.322Z,848.00
2023-05-23T13:46:20.663Z,1024.00
2023-05-23T13:48:21.080Z,6428.00
2023-05-23T13:50:21.586Z,6388.00
2023-05-23T13:52:21.918Z,5116.00
2023-05-23T13:54:27.043Z,4416.00
2023-05-23T13:56:27.521Z,5512.00
2023-05-23T13:58:28.814Z,6176.00
2023-05-23T14:00:30.441Z,6400.00
2023-05-23T14:03:13.037Z,5924.00
2023-05-23T14:05:13.588Z,6452.00
2023-05-23T14:07:13.938Z,6732.00
2023-05-23T14:09:14.267Z,7424.00
2023-05-23T14:11:14.569Z,8800.00
2023-05-23T14:13:14.945Z,7036.00
2023-05-23T14:15:15.327Z,6692.00
2023-05-23T14:17:15.882Z,6892.00
2023-05-23T14:19:16.186Z,6884.00
2023-05-23T14:21:16.596Z,6632.00
2023-05-23T14:23:16.841Z,6968.00
2023-05-23T14:25:17.138Z,7588.00
2023-05-23T14:27:17.412Z,7380.00
2023-05-23T14:29:17.830Z,6328.00
2023-05-23T14:31:18.153Z,6364.00
2023-05-23T14:33:18.586Z,6908.00
2023-05-23T14:35:18.896Z,6184.00
2023-05-23T14:37:19.826Z,5436.00
2023-05-23T14:39:20.136Z,5796.00
2023-05-23T14:41:20.400Z,6468.00
2023-05-23T14:43:20.754Z,4136.00
2023-05-23T14:45:21.009Z,4284.00
2023-05-23T14:47:21.302Z,3528.00
2023-05-23T14:49:21.620Z,3576.00
2023-05-23T14:51:41.890Z,3516.00
2023-05-23T14:53:27.108Z,3760.00
2023-05-23T14:55:27.417Z,3384.00
2023-05-23T14:57:27.705Z,2580.00
2023-05-23T14:59:27.965Z,2340.00
2023-05-23T15:01:28.279Z,2172.00
2023-05-23T15:03:28.679Z,2724.00
2023-05-23T15:05:29.087Z,3504.00
2023-05-23T15:07:29.321Z,4552.00
2023-05-23T15:09:29.623Z,5080.00
2023-05-23T15:11:30.050Z,5636.00
2023-05-23T15:13:30.304Z,5968.00
2023-05-23T15:15:30.621Z,6128.00
2023-05-23T15:17:30.967Z,6780.00
2023-05-23T15:19:31.293Z,6984.00
2023-05-23T15:21:31.599Z,7144.00
2023-05-23T15:23:31.821Z,7096.00
2023-05-23T15:25:47.855Z,6788.00
2023-05-23T15:27:37.302Z,6772.00
2023-05-23T15:29:37.661Z,6652.00
2023-05-23T15:31:38.004Z,6240.00
2023-05-23T15:33:38.278Z,4372.00
2023-05-23T15:35:38.638Z,3740.00
2023-05-23T15:37:38.970Z,5924.00
2023-05-23T15:39:39.353Z,6112.00
2023-05-23T15:41:39.740Z,6872.00
2023-05-23T15:43:40.074Z,5764.00
2023-05-23T15:45:40.397Z,6164.00
2023-05-23T15:47:40.823Z,6980.00
2023-05-23T15:49:41.102Z,5964.00
2023-05-23T15:51:41.567Z,5864.00
2023-05-23T15:53:58.841Z,7568.00
2023-05-23T15:55:47.192Z,6436.00
2023-05-23T15:57:47.618Z,6920.00
2023-05-23T15:59:47.997Z,6180.00
2023-05-23T16:01:48.412Z,8464.00
2023-05-23T16:03:48.948Z,8188.00
2023-05-23T16:05:49.415Z,6424.00
2023-05-23T16:07:49.671Z,7816.00
2023-05-23T16:09:50.059Z,7696.00
2023-05-23T16:11:50.362Z,7232.00
2023-05-23T16:13:50.742Z,5412.00
2023-05-23T16:15:55.884Z,6212.00
2023-05-23T16:17:56.274Z,4856.00
2023-05-23T16:19:56.692Z,4732.00
2023-05-23T16:21:56.943Z,4868.00
2023-05-23T16:23:57.271Z,4756.00
2023-05-23T16:25:57.573Z,4540.00
2023-05-23T16:27:57.978Z,4492.00
2023-05-23T16:29:58.288Z,4632.00
2023-05-23T16:31:58.635Z,4764.00
2023-05-23T16:33:58.960Z,4544.00
2023-05-23T16:35:59.229Z,4732.00
2023-05-23T16:37:59.512Z,4996.00
2023-05-23T16:39:59.940Z,4292.00
2023-05-23T16:42:00.717Z,3984.00
2023-05-23T16:44:01.028Z,3716.00
2023-05-23T16:46:01.353Z,3764.00
2023-05-23T16:48:02.083Z,3852.00
2023-05-23T16:50:02.553Z,4044.00
2023-05-23T16:52:02.896Z,3996.00
2023-05-23T16:54:03.359Z,4168.00
2023-05-23T16:56:03.790Z,5736.00
2023-05-23T16:58:04.143Z,5660.00
2023-05-23T17:00:04.418Z,5456.00
2023-05-23T17:02:04.837Z,5120.00
2023-05-23T17:04:05.170Z,4528.00
2023-05-23T17:06:05.462Z,4640.00
2023-05-23T17:08:05.955Z,4040.00
2023-05-23T17:10:06.243Z,3252.00
2023-05-23T17:12:06.577Z,2960.00
2023-05-23T17:14:06.854Z,2772.00
2023-05-23T17:16:07.251Z,2332.00
2023-05-23T17:18:07.648Z,2460.00
2023-05-23T17:20:07.939Z,2388.00
2023-05-23T17:22:08.417Z,2136.00
2023-05-23T17:24:08.722Z,2028.00
2023-05-23T17:26:09.029Z,2000.00
2023-05-23T17:28:09.371Z,1848.00
2023-05-23T17:30:09.671Z,1620.00
2023-05-23T17:32:09.941Z,1580.00
2023-05-23T17:34:10.251Z,1580.00
2023-05-23T17:36:10.563Z,1484.00
2023-05-23T17:38:10.897Z,1616.00
2023-05-23T17:40:11.203Z,1668.00
2023-05-23T17:42:11.566Z,1656.00
2023-05-23T17:44:11.890Z,1732.00
2023-05-23T17:46:12.296Z,1392.00
2023-05-23T17:48:12.634Z,1568.00
2023-05-23T17:50:12.909Z,1668.00
2023-05-23T17:52:13.302Z,1816.00
2023-05-23T17:54:13.605Z,1800.00
2023-05-23T17:56:13.906Z,1984.00
2023-05-23T17:58:14.221Z,1872.00
2023-05-23T18:00:14.574Z,1888.00
2023-05-23T18:02:14.919Z,1832.00
2023-05-23T18:04:15.275Z,1820.00
2023-05-23T18:06:15.581Z,1572.00
2023-05-23T18:08:15.860Z,1344.00
2023-05-23T18:10:16.173Z,1128.00
2023-05-23T18:12:16.633Z,1024.00
2023-05-23T18:14:16.980Z,824.00
2023-05-23T18:16:58.965Z,592.00
2023-05-23T18:18:59.251Z,520.00
2023-05-23T18:20:59.766Z,496.00
2023-05-23T18:23:00.068Z,500.00
2023-05-23T18:25:00.473Z,488.00
2023-05-23T18:27:00.739Z,424.00
2023-05-23T18:29:01.006Z,356.00
2023-05-23T18:31:01.344Z,356.00
2023-05-23T18:33:01.731Z,300.00
2023-05-23T18:35:02.106Z,216.00
2023-05-23T18:37:02.448Z,168.00
2023-05-23T18:39:02.766Z,132.00
2023-05-23T18:41:03.049Z,120.00
2023-05-23T18:43:03.311Z,108.00
2023-05-23T18:45:03.646Z,96.00
2023-05-23T18:47:04.085Z,80.00
2023-05-23T18:49:04.410Z,76.00
2023-05-23T18:51:04.752Z,60.00
2023-05-23T18:53:05.232Z,56.00
2023-05-23T18:55:05.538Z,52.00
2023-05-23T18:57:05.772Z,48.00
2023-05-23T18:59:06.120Z,40.00
2023-05-23T19:01:06.483Z,40.00
2023-05-23T19:03:06.787Z,28.00
2023-05-23T19:05:07.166Z,28.00
2023-05-23T19:07:09.189Z,28.00
2023-05-23T19:09:09.507Z,28.00
2023-05-23T19:11:09.995Z,24.00
2023-05-23T19:13:10.320Z,20.00
2023-05-23T19:15:10.599Z,20.00
2023-05-23T19:17:10.890Z,16.00
2023-05-23T19:19:11.332Z,16.00
2023-05-23T19:21:11.672Z,16.00
2023-05-23T19:23:12.037Z,12.00
2023-05-23T19:25:12.416Z,12.00
2023-05-23T19:27:12.667Z,8.00
2023-05-23T19:29:13.026Z,8.00
2023-05-23T19:31:13.285Z,4.00
2023-05-23T19:33:14.068Z,4.00
2023-05-23T19:35:16.549Z,8.00
2023-05-23T19:37:17.424Z,4.00
2023-05-23T19:39:17.919Z,4.00
2023-05-23T19:41:20.279Z,4.00
2023-05-23T19:43:23.556Z,0.00
2023-05-23T19:45:24.263Z,4.00
2023-05-23T19:47:24.909Z,4.00
2023-05-23T19:49:25.317Z,4.00
2023-05-23T19:51:25.831Z,0.00
2023-05-23T19:53:26.165Z,0.00
2023-05-23T19:55:26.492Z,0.00
2023-05-23T19:57:26.761Z,0.00
2023-05-23T19:59:27.149Z,0.00
2023-05-23T20:01:27.537Z,0.00
2023-05-23T20:03:27.922Z,0.00
2023-05-23T20:05:28.244Z,0.00
2023-05-23T20:07:28.904Z,0.00
2023-05-23T20:11:19.243Z,0.00
2023-05-23T20:14:22.540Z,0.00
2023-05-23T20:20:30.137Z,0.00
2023-05-23T20:24:49.770Z,0.00
2023-05-23T20:28:04.860Z,0.00
2023-05-23T20:30:05.369Z,0.00
2023-05-23T20:32:08.044Z,0.00
2023-05-23T20:34:08.591Z,0.00
2023-05-23T20:36:09.061Z,0.00
2023-05-23T20:38:09.382Z,0.00
2023-05-23T20:40:09.721Z,0.00
2023-05-23T20:42:10.171Z,0.00
2023-05-23T20:44:11.306Z,0.00
2023-05-23T20:46:11.596Z,0.00
2023-05-23T20:48:11.946Z,0.00
2023-05-23T20:50:12.226Z,0.00
2023-05-23T20:52:15.000Z,0.00
2023-05-23T20:54:15.446Z,0.00
2023-05-23T20:57:37.747Z,0.00
2023-05-23T20:59:38.359Z,0.00
2023-05-23T21:01:38.911Z,0.00
2023-05-23T21:03:46.046Z,0.00
2023-05-23T21:06:30.475Z,0.00
2023-05-23T21:08:34.629Z,0.00
2023-05-23T21:12:00.012Z,0.00
2023-05-23T21:14:02.371Z,0.00
2023-05-23T21:16:03.515Z,0.00
2023-05-23T21:18:03.791Z,0.00
2023-05-23T21:20:04.109Z,0.00
2023-05-23T21:22:04.626Z,0.00
2023-05-23T21:24:04.909Z,0.00
2023-05-23T21:26:06.061Z,0.00
2023-05-23T21:28:06.442Z,0.00
2023-05-23T21:30:06.751Z,0.00
2023-05-23T21:32:08.090Z,0.00
2023-05-23T21:34:21.613Z,0.00
2023-05-23T21:36:13.581Z,0.00
2023-05-23T21:38:14.000Z,0.00
2023-05-23T21:40:14.235Z,0.00
2023-05-23T21:42:14.599Z,0.00
2023-05-23T21:44:28.972Z,0.00
2023-05-23T21:46:29.344Z,0.00
2023-05-23T21:48:29.715Z,0.00
2023-05-23T21:50:30.048Z,0.00
2023-05-23T21:52:30.349Z,0.00
2023-05-23T21:54:30.769Z,0.00
2023-05-23T21:56:31.063Z,0.00
2023-05-23T21:58:36.475Z,0.00
2023-05-23T22:00:36.767Z,0.00
2023-05-23T22:02:39.741Z,0.00
2023-05-23T22:04:40.095Z,0.00
2023-05-23T22:06:40.393Z,0.00
2023-05-23T22:08:40.716Z,0.00
2023-05-23T22:10:41.429Z,0.00
2023-05-23T22:12:41.862Z,0.00
2023-05-23T22:14:42.262Z,0.00
2023-05-23T22:16:42.613Z,0.00
2023-05-23T22:18:51.708Z,0.00
2023-05-23T22:20:48.292Z,0.00
2023-05-23T22:22:48.576Z,0.00
2023-05-23T22:24:48.954Z,0.00
2023-05-23T22:26:49.222Z,0.00
2023-05-23T22:28:49.537Z,0.00
2023-05-23T22:30:49.949Z,0.00
2023-05-23T22:32:50.268Z,0.00
2023-05-23T22:34:50.641Z,0.00
2023-05-23T22:36:51.036Z,0.00
2023-05-23T22:38:51.307Z,0.00
2023-05-23T22:40:51.588Z,0.00
2023-05-23T22:42:51.982Z,0.00
2023-05-23T22:44:52.260Z,0.00
2023-05-23T22:46:52.611Z,0.00
2023-05-23T22:48:53.014Z,0.00
2023-05-23T22:50:53.267Z,0.00
2023-05-23T22:52:53.568Z,0.00
2023-05-23T22:54:54.297Z,0.00
2023-05-23T22:56:54.558Z,0.00
2023-05-23T22:58:55.226Z,0.00
2023-05-23T23:00:55.584Z,0.00
2023-05-23T23:02:56.111Z,0.00
2023-05-23T23:04:56.432Z,0.00
2023-05-23T23:06:56.782Z,0.00
2023-05-23T23:08:57.127Z,0.00
2023-05-23T23:10:57.438Z,0.00
2023-05-23T23:12:57.788Z,0.00
2023-05-23T23:14:58.068Z,0.00
2023-05-23T23:16:58.355Z,0.00
2023-05-23T23:18:58.972Z,0.00
2023-05-23T23:20:59.269Z,0.00
2023-05-23T23:22:59.670Z,0.00
2023-05-23T23:25:00.005Z,0.00
2023-05-23T23:27:00.510Z,0.00
2023-05-23T23:29:00.795Z,0.00
2023-05-23T23:31:01.174Z,0.00
2023-05-23T23:33:01.525Z,0.00
2023-05-23T23:35:02.144Z,0.00
2023-05-23T23:37:02.441Z,0.00
2023-05-23T23:39:02.735Z,0.00
2023-05-23T23:41:03.076Z,0.00
2023-05-23T23:43:03.821Z,0.00
2023-05-23T23:45:04.147Z,0.00
2023-05-23T23:47:04.445Z,0.00
2023-05-23T23:49:04.726Z,0.00
2023-05-23T23:51:05.116Z,0.00
2023-05-23T23:53:05.412Z,0.00
2023-05-23T23:55:05.723Z,0.00
2023-05-23T23:57:06.073Z,0.00
2023-05-23T23:59:06.373Z,0.00
